createdAt,value
2019-03-23T00:02:13.419Z,93.37
2019-03-23T00:05:35.593Z,91.60
2019-03-23T00:09:24.632Z,88.60
2019-03-23T00:11:53.844Z,92.03
2019-03-23T00:14:23.063Z,92.30
2019-03-23T00:16:52.220Z,93.93
2019-03-23T00:19:21.324Z,91.03
2019-03-23T00:21:50.457Z,86.30
2019-03-23T00:24:19.587Z,81.87
2019-03-23T00:26:48.740Z,85.80
2019-03-23T00:29:22.800Z,84.60
2019-03-23T00:31:51.944Z,84.00
2019-03-23T00:34:21.088Z,74.73
2019-03-23T00:36:50.219Z,83.57
2019-03-23T00:39:19.368Z,90.97
2019-03-23T00:41:48.540Z,85.43
2019-03-23T00:44:17.849Z,86.00
2019-03-23T00:46:46.998Z,74.67
2019-03-23T00:49:18.315Z,81.70
2019-03-23T00:51:47.444Z,85.33
2019-03-23T00:54:19.459Z,86.33
2019-03-23T00:56:48.605Z,88.93
2019-03-23T00:59:20.532Z,87.40
2019-03-23T01:01:49.645Z,77.97
2019-03-23T01:04:19.080Z,82.77
2019-03-23T01:06:52.407Z,77.07
2019-03-23T01:09:19.087Z,89.13
2019-03-23T01:12:07.355Z,83.07
2019-03-23T01:14:36.607Z,89.83
2019-03-23T01:17:05.784Z,93.70
2019-03-23T01:19:34.977Z,93.20
2019-03-23T01:22:04.130Z,91.23
2019-03-23T01:24:33.276Z,79.30
2019-03-23T01:27:02.401Z,81.37
2019-03-23T01:29:31.584Z,76.73
2019-03-23T01:32:00.711Z,82.47
2019-03-23T01:34:29.874Z,79.23
2019-03-23T01:37:02.906Z,76.80
2019-03-23T01:39:29.926Z,73.83
2019-03-23T01:41:59.488Z,81.30
2019-03-23T01:44:47.684Z,77.50
2019-03-23T01:47:20.008Z,72.60
2019-03-23T01:49:49.119Z,75.73
2019-03-23T01:52:18.432Z,79.57
2019-03-23T01:54:47.571Z,78.90
2019-03-23T01:57:16.976Z,66.27
2019-03-23T01:59:46.104Z,76.17
2019-03-23T02:02:15.319Z,74.93
2019-03-23T02:04:45.725Z,74.60
2019-03-23T02:07:15.636Z,75.37
2019-03-23T02:09:44.768Z,83.97
2019-03-23T02:12:13.919Z,82.63
2019-03-23T02:14:43.039Z,90.40
2019-03-23T02:17:12.249Z,86.23
2019-03-23T02:19:41.376Z,87.03
2019-03-23T02:22:10.524Z,96.63
2019-03-23T02:24:39.699Z,92.47
2019-03-23T02:27:08.897Z,105.00
2019-03-23T02:29:38.036Z,91.47
2019-03-23T02:32:08.780Z,102.07
2019-03-23T02:34:37.892Z,88.00
2019-03-23T02:37:07.029Z,89.17
2019-03-23T02:39:36.200Z,94.17
2019-03-23T02:42:05.382Z,84.13
2019-03-23T02:44:34.578Z,90.33
2019-03-23T02:47:03.795Z,90.43
2019-03-23T02:49:32.972Z,93.73
2019-03-23T02:52:04.908Z,98.27
2019-03-23T02:54:34.109Z,95.27
2019-03-23T02:57:06.081Z,81.03
2019-03-23T02:59:35.284Z,81.80
2019-03-23T03:02:04.583Z,102.93
2019-03-23T03:04:33.749Z,92.10
2019-03-23T03:07:02.937Z,86.17
2019-03-23T03:09:32.102Z,80.93
2019-03-23T03:12:01.304Z,83.70
2019-03-23T03:14:30.459Z,75.67
2019-03-23T03:16:59.584Z,87.50
2019-03-23T03:19:28.710Z,97.00
2019-03-23T03:21:57.873Z,84.03
2019-03-23T03:24:27.000Z,89.60
2019-03-23T03:26:56.159Z,88.37
2019-03-23T03:29:25.302Z,88.93
2019-03-23T03:31:54.506Z,92.20
2019-03-23T03:34:23.672Z,87.77
2019-03-23T03:36:52.860Z,99.23
2019-03-23T03:39:22.034Z,93.43
2019-03-23T03:41:51.143Z,95.83
2019-03-23T03:44:20.260Z,82.40
2019-03-23T03:46:49.433Z,99.63
2019-03-23T03:49:18.569Z,95.97
2019-03-23T03:51:47.720Z,86.20
2019-03-23T03:54:16.941Z,88.17
2019-03-23T03:56:46.114Z,94.80
2019-03-23T03:59:17.039Z,89.43
2019-03-23T04:01:46.324Z,94.93
2019-03-23T04:04:17.618Z,95.53
2019-03-23T04:06:46.764Z,91.43
2019-03-23T04:09:18.911Z,92.70
2019-03-23T04:11:48.050Z,90.60
2019-03-23T04:14:19.080Z,79.80
2019-03-23T04:16:48.256Z,83.63
2019-03-23T04:19:19.542Z,85.57
2019-03-23T04:21:48.699Z,77.13
2019-03-23T04:24:18.824Z,79.07
2019-03-23T04:26:47.940Z,80.27
2019-03-23T04:29:17.232Z,73.70
2019-03-23T04:31:46.375Z,80.60
2019-03-23T04:34:15.639Z,74.30
2019-03-23T04:36:44.816Z,79.93
2019-03-23T04:39:13.993Z,76.97
2019-03-23T04:41:43.197Z,81.13
2019-03-23T04:44:12.348Z,78.57
2019-03-23T04:46:41.430Z,70.50
2019-03-23T04:49:10.618Z,73.77
2019-03-23T04:51:39.751Z,80.20
2019-03-23T04:54:08.946Z,64.73
2019-03-23T04:56:38.365Z,72.67
2019-03-23T04:59:07.481Z,72.00
2019-03-23T05:01:36.637Z,67.80
2019-03-23T05:04:05.884Z,66.53
2019-03-23T05:06:35.083Z,66.73
2019-03-23T05:09:08.057Z,64.37
2019-03-23T05:11:37.204Z,66.47
2019-03-23T05:14:06.331Z,60.87
2019-03-23T05:16:35.548Z,64.30
2019-03-23T05:19:23.798Z,62.73
2019-03-23T05:21:52.928Z,57.50
2019-03-23T05:24:22.087Z,59.27
2019-03-23T05:26:51.263Z,62.27
2019-03-23T05:29:20.430Z,63.57
2019-03-23T05:31:49.591Z,56.00
2019-03-23T05:34:18.722Z,60.00
2019-03-23T05:37:06.937Z,55.43
2019-03-23T05:39:36.084Z,63.47
2019-03-23T05:42:05.396Z,68.77
2019-03-23T05:44:34.572Z,60.57
2019-03-23T05:47:03.787Z,64.20
2019-03-23T05:49:32.912Z,67.17
2019-03-23T05:52:02.038Z,64.10
2019-03-23T05:54:31.180Z,66.73
2019-03-23T05:57:00.324Z,64.87
2019-03-23T05:59:29.480Z,68.17
2019-03-23T06:01:58.612Z,68.93
2019-03-23T06:04:27.801Z,68.93
2019-03-23T06:06:56.984Z,64.60
2019-03-23T06:09:26.141Z,73.10
2019-03-23T06:11:55.254Z,66.60
2019-03-23T06:14:24.387Z,62.63
2019-03-23T06:17:12.622Z,67.17
2019-03-23T06:19:41.991Z,67.00
2019-03-23T06:22:11.129Z,65.73
2019-03-23T06:24:40.277Z,66.57
2019-03-23T06:27:09.431Z,64.87
2019-03-23T06:29:38.597Z,70.87
2019-03-23T06:32:26.789Z,70.10
2019-03-23T06:34:56.112Z,62.77
2019-03-23T06:37:25.236Z,62.97
2019-03-23T06:39:54.382Z,69.60
2019-03-23T06:42:23.503Z,71.80
2019-03-23T06:44:52.753Z,73.83
2019-03-23T06:47:22.249Z,64.87
2019-03-23T06:49:51.401Z,68.23
2019-03-23T06:52:20.558Z,68.37
2019-03-23T06:54:49.765Z,69.37
2019-03-23T06:57:38.056Z,74.53
2019-03-23T07:00:08.357Z,67.67
2019-03-23T07:02:37.500Z,67.93
2019-03-23T07:05:07.608Z,71.00
2019-03-23T07:07:36.809Z,73.43
2019-03-23T07:10:09.359Z,67.33
2019-03-23T07:12:38.630Z,74.17
2019-03-23T07:15:19.112Z,71.50
2019-03-23T07:17:39.612Z,66.47
2019-03-23T07:20:09.860Z,69.17
2019-03-23T07:22:39.011Z,78.93
2019-03-23T07:25:10.953Z,69.43
2019-03-23T07:27:40.111Z,65.40
2019-03-23T07:30:11.250Z,66.83
2019-03-23T07:32:40.878Z,76.60
2019-03-23T07:35:10.025Z,71.00
2019-03-23T07:37:39.205Z,73.40
2019-03-23T07:40:08.471Z,70.63
2019-03-23T07:42:37.628Z,65.37
2019-03-23T07:45:08.033Z,75.47
2019-03-23T07:47:37.213Z,69.03
2019-03-23T07:50:06.761Z,71.90
2019-03-23T07:52:36.051Z,74.07
2019-03-23T07:55:16.391Z,68.80
2019-03-23T07:58:04.626Z,67.40
2019-03-23T08:00:33.841Z,63.90
2019-03-23T08:03:05.493Z,64.77
2019-03-23T08:05:34.776Z,66.80
2019-03-23T08:08:04.000Z,62.83
2019-03-23T08:10:33.590Z,64.00
2019-03-23T08:13:04.401Z,64.60
2019-03-23T08:15:33.962Z,63.67
2019-03-23T08:18:07.708Z,58.70
2019-03-23T08:20:36.907Z,57.23
2019-03-23T08:23:06.091Z,67.13
2019-03-23T08:25:35.459Z,59.53
2019-03-23T08:28:04.785Z,56.20
2019-03-23T08:30:34.009Z,58.63
2019-03-23T08:33:22.342Z,55.93
2019-03-23T08:35:51.645Z,52.77
2019-03-23T08:38:20.842Z,57.37
2019-03-23T08:41:12.154Z,56.27
2019-03-23T08:43:41.339Z,53.97
2019-03-23T08:46:10.608Z,62.77
2019-03-23T08:48:40.038Z,57.87
2019-03-23T08:51:29.942Z,51.47
2019-03-23T08:54:10.331Z,49.53
2019-03-23T08:56:39.727Z,46.93
2019-03-23T08:59:08.899Z,48.90
2019-03-23T09:01:38.038Z,49.37
2019-03-23T09:04:07.193Z,43.53
2019-03-23T09:06:36.448Z,38.63
2019-03-23T09:09:06.831Z,39.53
2019-03-23T09:11:36.020Z,47.00
2019-03-23T09:14:05.445Z,39.67
2019-03-23T09:16:34.700Z,38.50
2019-03-23T09:19:03.898Z,40.17
2019-03-23T09:21:33.042Z,37.00
2019-03-23T09:24:02.226Z,39.40
2019-03-23T09:26:31.421Z,40.00
2019-03-23T09:29:00.589Z,41.17
2019-03-23T09:31:29.726Z,35.10
2019-03-23T09:33:58.918Z,37.83
2019-03-23T09:36:28.119Z,40.03
2019-03-23T09:38:57.549Z,37.57
2019-03-23T09:41:26.696Z,33.33
2019-03-23T09:43:55.811Z,36.77
2019-03-23T09:46:25.229Z,40.50
2019-03-23T09:48:54.438Z,33.70
2019-03-23T09:51:23.814Z,29.70
2019-03-23T09:53:52.970Z,22.67
2019-03-23T09:56:41.185Z,27.30
2019-03-23T09:59:11.869Z,31.20
2019-03-23T10:01:41.279Z,20.50
2019-03-23T10:04:10.447Z,18.77
2019-03-23T10:06:39.572Z,16.93
2019-03-23T10:09:08.738Z,21.33
2019-03-23T10:11:38.198Z,21.23
2019-03-23T10:14:07.403Z,23.63
2019-03-23T10:16:36.621Z,21.73
2019-03-23T10:19:05.765Z,15.83
2019-03-23T10:21:34.923Z,17.33
2019-03-23T10:24:04.146Z,12.57
2019-03-23T10:26:33.315Z,17.13
2019-03-23T10:29:02.515Z,13.50
2019-03-23T10:31:31.693Z,15.60
2019-03-23T10:34:00.833Z,14.87
2019-03-23T10:36:32.096Z,15.80
2019-03-23T10:39:01.236Z,14.10
2019-03-23T10:41:30.693Z,11.70
2019-03-23T10:43:59.848Z,11.77
2019-03-23T10:46:29.000Z,10.47
2019-03-23T10:48:58.163Z,13.53
2019-03-23T10:51:27.321Z,11.43
2019-03-23T10:53:56.789Z,12.27
2019-03-23T10:56:25.919Z,13.70
2019-03-23T10:58:55.056Z,14.93
2019-03-23T11:01:24.224Z,14.23
2019-03-23T11:03:53.702Z,17.40
2019-03-23T11:06:22.831Z,22.27
2019-03-23T11:08:52.310Z,16.37
2019-03-23T11:11:21.467Z,12.50
2019-03-23T11:13:50.633Z,11.30
2019-03-23T11:16:19.813Z,13.70
2019-03-23T11:18:48.949Z,12.23
2019-03-23T11:21:18.228Z,18.30
2019-03-23T11:23:47.368Z,15.87
2019-03-23T11:26:16.518Z,18.37
2019-03-23T11:28:45.711Z,11.47
2019-03-23T11:31:17.967Z,17.30
2019-03-23T11:33:47.128Z,17.03
2019-03-23T11:36:36.990Z,14.10
2019-03-23T11:39:07.373Z,12.37
2019-03-23T11:41:36.871Z,10.13
2019-03-23T11:44:06.128Z,16.03
2019-03-23T11:46:35.360Z,22.73
2019-03-23T11:49:04.780Z,14.40
2019-03-23T11:51:33.928Z,13.90
2019-03-23T11:54:05.958Z,14.23
2019-03-23T11:56:35.122Z,16.30
2019-03-23T11:59:07.417Z,14.00
2019-03-23T12:01:36.579Z,10.80
2019-03-23T12:04:05.756Z,20.17
2019-03-23T12:06:34.915Z,13.80
2019-03-23T12:09:06.985Z,16.43
2019-03-23T12:11:36.236Z,17.93
2019-03-23T12:14:05.533Z,14.17
2019-03-23T12:16:35.105Z,21.17
2019-03-23T12:19:09.071Z,20.83
2019-03-23T12:21:37.956Z,16.50
2019-03-23T12:24:07.171Z,15.73
2019-03-23T12:26:36.420Z,20.53
2019-03-23T12:29:05.938Z,22.50
2019-03-23T12:31:35.169Z,13.27
2019-03-23T12:34:04.481Z,18.97
2019-03-23T12:36:33.727Z,15.80
2019-03-23T12:39:05.201Z,12.27
2019-03-23T12:41:34.384Z,19.43
2019-03-23T12:44:03.585Z,11.70
2019-03-23T12:46:32.812Z,10.20
2019-03-23T12:49:02.026Z,16.20
2019-03-23T12:51:31.155Z,12.27
2019-03-23T12:54:00.348Z,13.40
2019-03-23T12:56:29.543Z,10.63
2019-03-23T12:58:59.109Z,13.53
2019-03-23T13:01:28.260Z,12.03
2019-03-23T13:03:57.456Z,14.57
2019-03-23T13:06:26.634Z,14.07
2019-03-23T13:08:55.835Z,21.50
2019-03-23T13:11:34.872Z,12.53
2019-03-23T13:13:56.063Z,11.37
2019-03-23T13:16:26.270Z,11.77
2019-03-23T13:18:55.487Z,15.40
2019-03-23T13:21:24.737Z,8.73
2019-03-23T13:23:53.927Z,11.90
2019-03-23T13:26:23.164Z,13.23
2019-03-23T13:28:52.466Z,14.90
2019-03-23T13:31:21.721Z,15.43
2019-03-23T13:33:50.907Z,8.67
2019-03-23T13:36:20.177Z,10.30
2019-03-23T13:38:49.429Z,12.77
2019-03-23T13:41:18.589Z,7.13
2019-03-23T13:43:47.761Z,15.83
2019-03-23T13:46:20.036Z,14.90
2019-03-23T13:48:49.233Z,9.97
2019-03-23T13:51:18.443Z,12.93
2019-03-23T13:53:47.640Z,15.20
2019-03-23T13:56:19.989Z,12.63
2019-03-23T13:58:49.135Z,11.03
2019-03-23T14:01:18.602Z,12.17
2019-03-23T14:03:47.978Z,10.90
2019-03-23T14:06:19.736Z,9.67
2019-03-23T14:08:48.986Z,8.13
2019-03-23T14:11:18.191Z,14.27
2019-03-23T14:13:47.384Z,12.43
2019-03-23T14:16:16.709Z,14.87
2019-03-23T14:18:46.022Z,15.77
2019-03-23T14:21:15.306Z,9.80
2019-03-23T14:23:44.643Z,12.53
2019-03-23T14:26:16.499Z,15.13
2019-03-23T14:28:45.666Z,17.30
2019-03-23T14:31:15.031Z,7.77
2019-03-23T14:33:44.298Z,12.73
2019-03-23T14:36:13.546Z,10.73
2019-03-23T14:38:42.769Z,15.30
2019-03-23T14:41:12.032Z,7.97
2019-03-23T14:43:41.266Z,8.93
2019-03-23T14:46:10.509Z,8.57
2019-03-23T14:48:39.780Z,12.03
2019-03-23T14:51:09.120Z,11.33
2019-03-23T14:53:38.317Z,10.93
2019-03-23T14:56:07.588Z,14.17
2019-03-23T14:58:36.729Z,15.17
2019-03-23T15:01:06.236Z,9.27
2019-03-23T15:03:35.433Z,12.43
2019-03-23T15:06:04.686Z,11.77
2019-03-23T15:08:33.924Z,15.13
2019-03-23T15:11:09.315Z,7.67
2019-03-23T15:13:38.538Z,10.23
2019-03-23T15:16:07.797Z,12.27
2019-03-23T15:18:37.092Z,13.53
2019-03-23T15:21:06.599Z,10.87
2019-03-23T15:23:35.762Z,12.87
2019-03-23T15:26:04.940Z,11.97
2019-03-23T15:28:34.107Z,12.30
2019-03-23T15:31:03.381Z,14.07
2019-03-23T15:33:32.528Z,10.87
2019-03-23T15:36:04.081Z,13.10
2019-03-23T15:38:33.211Z,14.20
2019-03-23T15:41:03.920Z,15.97
2019-03-23T15:43:52.156Z,10.97
2019-03-23T15:46:21.315Z,14.90
2019-03-23T15:48:50.473Z,10.90
2019-03-23T15:51:19.644Z,11.33
2019-03-23T15:53:48.785Z,13.43
2019-03-23T15:56:17.941Z,16.20
2019-03-23T15:58:47.115Z,13.27
2019-03-23T16:01:18.450Z,20.00
2019-03-23T16:03:47.581Z,10.47
2019-03-23T16:06:16.922Z,16.57
2019-03-23T16:08:46.036Z,13.73
2019-03-23T16:11:16.816Z,22.27
2019-03-23T16:13:45.965Z,14.67
2019-03-23T16:16:15.205Z,14.03
2019-03-23T16:18:44.404Z,14.50
2019-03-23T16:21:13.551Z,9.60
2019-03-23T16:23:42.723Z,18.27
2019-03-23T16:26:11.894Z,9.17
2019-03-23T16:28:41.057Z,18.13
2019-03-23T16:31:12.638Z,16.47
2019-03-23T16:33:41.793Z,11.87
2019-03-23T16:36:11.245Z,13.97
2019-03-23T16:38:40.752Z,10.63
2019-03-23T16:41:09.893Z,16.73
2019-03-23T16:43:39.417Z,14.17
2019-03-23T16:46:08.721Z,8.63
2019-03-23T16:48:37.916Z,17.20
2019-03-23T16:51:07.084Z,14.87
2019-03-23T16:53:36.355Z,10.97
2019-03-23T16:56:05.605Z,14.97
2019-03-23T16:58:34.777Z,8.87
2019-03-23T17:01:06.081Z,14.40
2019-03-23T17:03:35.561Z,13.67
2019-03-23T17:06:07.491Z,8.87
2019-03-23T17:08:36.653Z,13.07
2019-03-23T17:18:25.551Z,12.40
2019-03-23T17:20:54.706Z,14.33
2019-03-23T17:23:28.892Z,54.70
2019-03-23T17:26:25.380Z,7.80
2019-03-23T17:32:03.734Z,14.73
2019-03-23T17:34:32.875Z,12.40
2019-03-23T17:37:03.047Z,15.43
2019-03-23T17:39:32.219Z,12.03
2019-03-23T17:42:01.379Z,16.87
2019-03-23T17:44:30.553Z,14.67
2019-03-23T17:46:59.729Z,21.20
2019-03-23T17:49:28.849Z,16.37
2019-03-23T17:51:58.360Z,16.17
2019-03-23T17:54:27.603Z,16.73
2019-03-23T17:56:56.798Z,14.43
2019-03-23T17:59:26.036Z,15.87
2019-03-23T18:01:55.328Z,20.93
2019-03-23T18:04:24.582Z,24.40
2019-03-23T18:06:53.793Z,15.67
2019-03-23T18:09:22.906Z,19.50
2019-03-23T18:11:54.699Z,26.00
2019-03-23T18:14:27.290Z,23.37
2019-03-23T18:17:00.757Z,20.40
2019-03-23T18:19:29.917Z,15.00
2019-03-23T18:22:01.547Z,23.07
2019-03-23T18:24:55.175Z,19.27
2019-03-23T18:27:29.657Z,15.20
2019-03-23T18:30:05.409Z,20.37
2019-03-23T18:32:34.610Z,23.30
2019-03-23T18:35:08.426Z,14.07
2019-03-23T18:37:39.706Z,16.97
2019-03-23T18:40:10.076Z,18.80
2019-03-23T18:42:49.330Z,14.77
2019-03-23T18:45:18.630Z,13.80
2019-03-23T18:47:52.078Z,17.50
2019-03-23T18:50:24.524Z,12.53
2019-03-23T18:53:14.634Z,21.93
2019-03-23T18:55:46.116Z,32.30
2019-03-23T18:58:20.517Z,16.63
2019-03-23T19:00:59.268Z,22.20
2019-03-23T19:03:57.244Z,20.13
2019-03-23T19:06:44.767Z,31.67
2019-03-23T19:09:12.049Z,18.63
2019-03-23T19:11:45.763Z,17.67
2019-03-23T19:14:18.406Z,19.83
2019-03-23T19:16:59.374Z,21.57
2019-03-23T19:19:34.701Z,17.57
2019-03-23T19:22:10.492Z,34.27
2019-03-23T19:24:39.687Z,22.07
2019-03-23T19:27:10.556Z,25.03
2019-03-23T19:29:42.535Z,21.60
2019-03-23T19:32:16.386Z,37.20
2019-03-23T19:34:45.657Z,21.20
2019-03-23T19:37:19.633Z,21.40
2019-03-23T19:39:52.872Z,18.43
2019-03-23T19:42:22.335Z,25.07
2019-03-23T19:45:04.528Z,15.53
2019-03-23T19:47:58.733Z,16.00
2019-03-23T19:50:28.121Z,24.73
2019-03-23T19:52:57.599Z,23.37
2019-03-23T19:55:28.389Z,13.30
2019-03-23T19:58:00.752Z,28.90
2019-03-23T20:00:30.255Z,19.50
2019-03-23T20:03:04.428Z,19.57
2019-03-23T20:08:29.761Z,16.07
2019-03-23T20:11:00.196Z,28.57
2019-03-23T20:13:38.677Z,28.20
2019-03-23T20:16:09.839Z,23.87
2019-03-23T20:18:41.220Z,14.53
2019-03-23T20:21:10.443Z,25.50
2019-03-23T20:23:39.582Z,19.97
2019-03-23T20:26:08.810Z,25.50
2019-03-23T20:28:37.973Z,20.00
2019-03-23T20:31:07.149Z,29.03
2019-03-23T20:33:36.658Z,24.10
2019-03-23T20:36:05.832Z,25.60
2019-03-23T20:38:34.923Z,23.10
2019-03-23T20:41:09.826Z,26.03
2019-03-23T20:43:39.312Z,24.70
2019-03-23T20:46:08.435Z,23.83
2019-03-23T20:48:38.241Z,26.67
2019-03-23T20:51:08.409Z,27.07
2019-03-23T20:53:37.570Z,31.50
2019-03-23T20:56:06.950Z,28.63
2019-03-23T20:58:36.212Z,18.70
2019-03-23T21:01:05.446Z,19.33
2019-03-23T21:03:34.688Z,28.00
2019-03-23T21:06:03.831Z,27.17
2019-03-23T21:08:32.987Z,28.27
2019-03-23T21:11:02.184Z,14.43
2019-03-23T21:13:31.312Z,25.43
2019-03-23T21:16:00.441Z,22.40
2019-03-23T21:18:29.591Z,24.87
2019-03-23T21:20:58.723Z,20.83
2019-03-23T21:23:28.185Z,17.27
2019-03-23T21:25:57.333Z,35.97
2019-03-23T21:28:26.557Z,28.47
2019-03-23T21:30:57.540Z,19.50
2019-03-23T21:33:32.007Z,23.57
2019-03-23T21:35:57.545Z,23.13
2019-03-23T21:38:26.727Z,24.13
2019-03-23T21:40:55.847Z,11.47
2019-03-23T21:43:25.033Z,21.40
2019-03-23T21:45:54.184Z,25.73
2019-03-23T21:48:23.323Z,18.17
2019-03-23T21:50:52.483Z,21.83
2019-03-23T21:53:21.904Z,22.70
2019-03-23T21:55:52.226Z,20.40
2019-03-23T21:58:21.345Z,26.73
2019-03-23T22:00:50.512Z,17.83
2019-03-23T22:03:19.645Z,29.30
2019-03-23T22:05:48.785Z,23.27
2019-03-23T22:08:18.250Z,30.63
2019-03-23T22:10:47.411Z,20.90
2019-03-23T22:13:16.656Z,27.97
2019-03-23T22:15:45.793Z,21.90
2019-03-23T22:18:17.576Z,18.73
2019-03-23T22:20:46.704Z,24.77
2019-03-23T22:23:18.944Z,28.40
2019-03-23T22:25:48.087Z,21.27
2019-03-23T22:28:18.223Z,34.53
2019-03-23T22:30:47.360Z,23.07
2019-03-23T22:33:19.008Z,17.63
2019-03-23T22:35:48.126Z,22.83
2019-03-23T22:38:17.370Z,18.60
2019-03-23T22:40:46.506Z,34.97
2019-03-23T22:43:18.712Z,21.93
2019-03-23T22:45:47.822Z,31.77
2019-03-23T22:48:17.022Z,24.20
2019-03-23T22:50:46.180Z,21.13
2019-03-23T22:53:16.883Z,25.23
2019-03-23T22:55:45.999Z,24.17
2019-03-23T22:58:16.647Z,31.60
2019-03-23T23:00:47.131Z,28.23
2019-03-23T23:03:16.625Z,21.43
2019-03-23T23:05:45.819Z,28.33
2019-03-23T23:08:15.893Z,34.40
2019-03-23T23:10:45.039Z,28.90
2019-03-23T23:13:14.286Z,26.77
2019-03-23T23:15:43.718Z,34.10
2019-03-23T23:18:13.135Z,21.90
2019-03-23T23:20:42.283Z,29.20
2019-03-23T23:23:11.410Z,29.30
2019-03-23T23:25:40.594Z,32.50
2019-03-23T23:28:09.751Z,18.00
2019-03-23T23:30:38.868Z,45.67
2019-03-23T23:33:08.003Z,27.80
2019-03-23T23:35:37.216Z,28.20
2019-03-23T23:38:06.398Z,35.97
2019-03-23T23:40:35.560Z,26.17
2019-03-23T23:43:06.587Z,31.80
2019-03-23T23:45:35.740Z,31.83
2019-03-23T23:48:04.884Z,17.70
2019-03-23T23:50:34.069Z,29.03
2019-03-23T23:53:05.574Z,34.47
2019-03-23T23:55:34.753Z,24.43
2019-03-23T23:58:06.323Z,37.10
